Frankston, TX (75763)

6:07 PM CST on November 22, 2014 (GMT -0600)
Weaver Estates | Change Station
CLOSE
Current Station
Personal Weather Station
Location: Bullard, TX
Elevation: 384 ft
Nearby Weather Stations

Elev 384 ft 32.09 °N, 95.42 °W | Updated 3 minutes ago

Rain
Rain
62.4 °F
Feels Like 62.4 °F
N
0.0
Wind Variable Wind from ENE

Today
High -- | Low -- °F
--% Chance of Precip.
Yesterday
High -- | Low -- °F
Precip. -- in
6:57 AM 5:19 PM
New Moon, 0% visible
Pressure 29.88 in
Visibility 3.0 miles
Clouds Scattered Clouds 1700 ft
Mostly Cloudy 3200 ft
Overcast 7500 ft
Dew Point 62 °F
Humidity 99%
Rainfall 0.18 in
Snow Depth Not available.
UV 0 out of 12
Pollen 1.20 out of 12
Air Quality Not available.
Flu Activity Not available.
METAR KJSO 222355Z AUTO 10004KT 3SM VCTSRA SCT017 BKN032 OVC075 17/16 A2988 RMK AO2 LTG DSNT SE THRU SW P0005 T01700163

More Conditions Fewer Conditions

Pressure 29.88 in
Visibility 3.0 miles
Clouds Scattered Clouds 1700 ft
Mostly Cloudy 3200 ft
Overcast 7500 ft
Dew Point 62 °F
Humidity 99%
Rainfall 0.18 in
Snow Depth Not available.
UV 0 out of 12
Pollen 1.20 out of 12
Air Quality Not available.
Flu Activity Not available.
METAR KJSO 222355Z AUTO 10004KT 3SM VCTSRA SCT017 BKN032 OVC075 17/16 A2988 RMK AO2 LTG DSNT SE THRU SW P0005 T01700163

More Conditions Fewer Conditions

Nowcast | as of 5:22 PM CST on November 22, 2014

Numerous showers and scattered thunderstorms continue to progress eastward across north and central Texas. The main hazards with thunderstorms will be gusty winds...lightning...and heavy rain. Rainfall amounts will generally range from 1 to 3 inches across the area. Widespread rain and isolated storms will continue across most of the area through the evening...before tapering off from west to east later tonight.

×

10-Day Weather Forecast

Almanac

Astronomy

Nov. 22, 2014 Rise Set
Actual Time
Civil Twilight
Nautical Twilight
Astronomical Twilight
Moon
Length of Visible Light
Length of Day
Tomorrow will be .
, % of the Moon is Illuminated

Today's Extremes

State Highs State Lows

Community

WunderPhotos

Upload Photos

1,772,930 photos uploaded!

WunderBlogs® & News

Nearby

Air Quality

  Air Quality AQ Index Pollutant
Not available.

Snow Depth

Station Depth Elevation

Earthquake Activity

City Distance Mag. Time & Date
Minimum magnitude displayed is 2.5.

Coastal Water Temperatures

Place Temperature

Nearby Weather Stations